Time;durP1;ratioP1;P1;durP2;ratioP2;P2;SDS_P1;SDS_P2;PMS_P1;PMS_P2;Temp;Humidity;BMP_temperature;BMP_pressure;BME280_temperature;BME280_humidity;BME280_pressure;Samples;Min_cycle;Max_cycle;Signal;HPM_P1;HPM_P2
2023/06/13 00:00:48;;;;;;;1999.90;999.90;;;;;;;31.80;23.60;101500.13;5069103;28;20046;-63
2023/06/13 00:03:14;;;;;;;1999.90;999.90;;;;;;;32.42;23.21;101498.06;5069796;28;20501;-63
2023/06/13 00:05:46;;;;;;;1999.90;999.90;;;;;;;32.38;23.46;101496.66;5068399;28;20028;-63
2023/06/13 00:08:19;;;;;;;1999.90;999.90;;;;;;;32.39;22.88;101495.66;5051585;28;20024;-63
2023/06/13 00:10:48;;;;;;;1999.90;999.90;;;;;;;32.68;22.98;101492.06;5050965;28;20021;-63
2023/06/13 00:13:15;;;;;;;1999.90;999.90;;;;;;;32.50;23.16;101489.25;5050538;28;20082;-63
2023/06/13 00:15:48;;;;;;;1999.90;999.90;;;;;;;32.00;23.22;101492.03;5050886;28;20090;-63
2023/06/13 00:18:15;;;;;;;1999.90;999.90;;;;;;;32.00;23.95;101492.03;5051624;28;20025;-63
2023/06/13 00:20:41;;;;;;;1999.90;999.90;;;;;;;31.78;23.02;101488.63;5050116;28;20388;-63
2023/06/13 00:23:08;;;;;;;1999.90;999.90;;;;;;;32.17;23.58;101487.84;5051572;28;20029;-63
2023/06/13 00:25:37;;;;;;;1999.90;999.90;;;;;;;32.13;23.04;101487.22;5051078;28;20036;-63
2023/06/13 00:28:02;;;;;;;1999.90;999.90;;;;;;;31.71;23.21;101488.31;5050592;28;20021;-64
2023/06/13 00:30:27;;;;;;;1999.90;999.90;;;;;;;31.71;23.30;101476.63;5051531;28;20032;-63
2023/06/13 00:32:56;;;;;;;1999.90;999.90;;;;;;;31.77;22.41;101486.91;5052883;28;20035;-63
2023/06/13 00:35:22;;;;;;;1999.90;999.90;;;;;;;31.73;23.06;101485.47;5055150;28;20170;-63
2023/06/13 00:37:50;;;;;;;1999.90;999.90;;;;;;;31.81;22.53;101488.31;5054734;28;20028;-63
2023/06/13 00:40:17;;;;;;;1999.90;999.90;;;;;;;31.87;23.92;101485.06;5054468;28;20024;-63
2023/06/13 00:42:43;;;;;;;1999.90;999.90;;;;;;;31.53;22.76;101479.97;5072955;28;20021;-63
2023/06/13 00:45:38;;;;;;;1999.90;999.90;;;;;;;31.86;22.54;101477.97;5055335;28;20034;-63
2023/06/13 00:48:07;;;;;;;1999.90;999.90;;;;;;;30.98;22.80;101479.41;5037115;28;20033;-63
2023/06/13 00:50:35;;;;;;;1999.90;999.90;;;;;;;31.71;22.85;101482.03;5055033;28;20044;-63
2023/06/13 00:53:10;;;;;;;1999.90;999.90;;;;;;;31.83;22.13;101480.91;5055183;28;20020;-63
2023/06/13 00:55:37;;;;;;;1999.90;999.90;;;;;;;31.57;23.32;101475.13;5053329;28;20085;-63
2023/06/13 00:58:06;;;;;;;1999.90;999.90;;;;;;;31.82;22.26;101472.97;5055214;28;20477;-63
2023/06/13 01:00:35;;;;;;;1999.90;999.90;;;;;;;31.58;22.88;101466.06;5072996;28;20024;-63
2023/06/13 01:03:09;;;;;;;1999.90;999.90;;;;;;;30.94;22.92;101473.41;5072144;28;20021;-63
2023/06/13 01:05:38;;;;;;;1999.90;999.90;;;;;;;31.22;23.31;101471.88;5054587;28;20024;-62
2023/06/13 01:08:07;;;;;;;1999.90;999.90;;;;;;;31.49;22.63;101466.88;5053986;28;20032;-63
2023/06/13 01:10:33;;;;;;;1999.90;999.90;;;;;;;31.07;23.03;101463.28;5054722;28;20016;-63
2023/06/13 01:13:28;;;;;;;1999.90;999.90;;;;;;;31.42;22.46;101462.03;5054487;28;20372;-63
2023/06/13 01:16:11;;;;;;;1999.90;999.90;;;;;;;30.96;22.91;101466.88;5053420;28;20035;-63
2023/06/13 01:18:42;;;;;;;1999.90;999.90;;;;;;;30.25;23.37;101472.03;5054126;28;20123;-63
2023/06/13 01:21:09;;;;;;;1999.90;999.90;;;;;;;30.74;23.17;101467.06;5054828;28;20021;-63
2023/06/13 01:23:38;;;;;;;1999.90;999.90;;;;;;;31.23;23.25;101465.50;5053682;28;20115;-63
2023/06/13 01:26:20;;;;;;;1999.90;999.90;;;;;;;30.81;23.10;101465.53;5072396;28;20030;-63
2023/06/13 01:28:51;;;;;;;1999.90;999.90;;;;;;;30.22;23.53;101462.38;5053989;28;20034;-63
2023/06/13 01:31:19;;;;;;;1999.90;999.90;;;;;;;30.42;23.71;101458.00;5053515;28;20123;-63
2023/06/13 01:33:45;;;;;;;1999.90;999.90;;;;;;;30.63;23.74;101460.72;5054017;28;20024;-63
2023/06/13 01:36:11;;;;;;;1999.90;999.90;;;;;;;30.38;23.54;101467.34;5053714;28;20044;-63
2023/06/13 01:38:37;;;;;;;1999.90;999.90;;;;;;;30.66;23.14;101458.78;5053799;28;20031;-63
2023/06/13 01:41:03;;;;;;;1999.90;999.90;;;;;;;31.13;23.00;101467.28;5072318;28;20028;-63
2023/06/13 01:43:28;;;;;;;1999.90;999.90;;;;;;;30.02;24.11;101471.25;5051961;28;20025;-63
2023/06/13 01:46:00;;;;;;;1999.90;999.90;;;;;;;30.64;23.94;101461.59;5053660;28;20363;-63
2023/06/13 01:48:52;;;;;;;1999.90;999.90;;;;;;;30.50;23.09;101457.41;5054064;28;20035;-63
2023/06/13 01:51:51;;;;;;;1999.90;999.90;;;;;;;30.10;24.01;101471.47;5053076;28;20028;-63
2023/06/13 01:54:21;;;;;;;1999.90;999.90;;;;;;;30.21;23.57;101460.69;5066288;28;20078;-63
2023/06/13 01:56:50;;;;;;;1999.90;999.90;;;;;;;29.17;24.92;101465.44;5053603;28;20039;-63
2023/06/13 01:59:23;;;;;;;1999.90;999.90;;;;;;;29.75;24.22;101453.69;5053041;28;20024;-63
2023/06/13 02:01:49;;;;;;;1999.90;999.90;;;;;;;30.02;25.27;101452.41;5071315;28;20036;-63
2023/06/13 02:04:15;;;;;;;1999.90;999.90;;;;;;;30.08;24.16;101454.59;5053043;28;20028;-63
2023/06/13 02:06:40;;;;;;;1999.90;999.90;;;;;;;29.82;24.81;101454.03;5071096;28;20047;-63
2023/06/13 02:09:05;;;;;;;1999.90;999.90;;;;;;;29.23;25.23;101459.56;5053994;28;20027;-63
2023/06/13 02:11:31;;;;;;;1999.90;999.90;;;;;;;29.60;24.50;101451.25;5052634;28;20059;-63
2023/06/13 02:13:56;;;;;;;1999.90;999.90;;;;;;;30.16;24.66;101452.13;5071057;28;20029;-63
2023/06/13 02:16:25;;;;;;;1999.90;999.90;;;;;;;29.35;25.64;101456.94;5053542;28;20461;-63
2023/06/13 02:18:51;;;;;;;1999.90;999.90;;;;;;;29.50;24.55;101458.38;5070313;28;20021;-63
2023/06/13 02:21:16;;;;;;;1999.90;999.90;;;;;;;29.78;24.77;101453.41;5071567;28;20036;-63
2023/06/13 02:23:42;;;;;;;1999.90;999.90;;;;;;;29.79;24.31;101455.13;5052855;28;20020;-63
2023/06/13 02:26:07;;;;;;;1999.90;999.90;;;;;;;29.60;24.40;101456.63;5052456;28;20392;-63
2023/06/13 02:28:33;;;;;;;1999.90;999.90;;;;;;;29.31;24.88;101452.75;5053210;28;20020;-62
2023/06/13 02:30:59;;;;;;;1999.90;999.90;;;;;;;28.91;25.54;101465.66;5070889;28;20032;-63
2023/06/13 02:33:24;;;;;;;1999.90;999.90;;;;;;;28.79;26.07;101455.00;5052592;28;20107;-63
2023/06/13 02:35:50;;;;;;;1999.90;999.90;;;;;;;28.36;26.21;101459.13;5070584;28;20127;-63
2023/06/13 02:38:15;;;;;;;1999.90;999.90;;;;;;;29.28;25.58;101457.41;5071318;28;20031;-63
2023/06/13 02:40:41;;;;;;;1999.90;999.90;;;;;;;29.32;25.19;101463.41;5051946;28;20043;-63
2023/06/13 02:43:06;;;;;;;1999.90;999.90;;;;;;;29.60;25.40;101459.31;5053052;28;20036;-63
2023/06/13 02:45:32;;;;;;;1999.90;999.90;;;;;;;28.86;25.86;101467.00;5052877;28;20169;-63
2023/06/13 02:47:58;;;;;;;1999.90;999.90;;;;;;;28.73;25.91;101461.72;5051728;28;20366;-63
2023/06/13 02:50:24;;;;;;;1999.90;999.90;;;;;;;28.71;25.46;101463.66;5052874;28;20020;-63
2023/06/13 02:52:49;;;;;;;1999.90;999.90;;;;;;;29.26;25.45;101464.75;5052445;28;20024;-63
2023/06/13 02:55:14;;;;;;;1999.90;999.90;;;;;;;28.78;25.37;101470.28;5051272;28;20048;-63
2023/06/13 02:57:41;;;;;;;1999.90;999.90;;;;;;;28.70;25.98;101470.00;5052377;28;20024;-63
2023/06/13 03:00:09;;;;;;;1999.90;999.90;;;;;;;28.74;26.13;101466.97;5052748;28;20479;-63
2023/06/13 03:02:38;;;;;;;1999.90;999.90;;;;;;;28.90;25.75;101466.63;5051768;28;20162;-63
2023/06/13 03:05:11;;;;;;;1999.90;999.90;;;;;;;29.07;26.15;101461.75;5070793;28;20276;-63
2023/06/13 03:07:42;;;;;;;1999.90;999.90;;;;;;;28.99;26.14;101474.94;5069341;28;20024;-63
2023/06/13 03:10:08;;;;;;;1999.90;999.90;;;;;;;28.03;26.94;101474.13;5052216;28;20483;-63
2023/06/13 03:12:37;;;;;;;1999.90;999.90;;;;;;;28.86;26.59;101470.53;5052675;28;20036;-63
2023/06/13 03:15:02;;;;;;;1999.90;999.90;;;;;;;28.58;26.83;101471.78;5051531;28;20055;-63
2023/06/13 03:17:28;;;;;;;1999.90;999.90;;;;;;;28.54;26.68;101479.22;5052450;28;20113;-63
2023/06/13 03:19:53;;;;;;;1999.90;999.90;;;;;;;28.76;27.14;101477.63;5051927;28;20547;-63
2023/06/13 03:22:19;;;;;;;1999.90;999.90;;;;;;;28.89;26.45;101472.13;5051685;28;20032;-63
2023/06/13 03:24:45;;;;;;;1999.90;999.90;;;;;;;28.70;27.97;101472.69;5051424;28;20028;-62
2023/06/13 03:27:14;;;;;;;1999.90;999.90;;;;;;;28.57;26.76;101473.59;5070068;28;20027;-63
2023/06/13 03:29:41;;;;;;;1999.90;999.90;;;;;;;28.80;27.13;101467.47;5069031;28;20396;-63
2023/06/13 03:32:10;;;;;;;1999.90;999.90;;;;;;;28.72;26.55;101471.59;5070068;28;20047;-63
2023/06/13 03:34:38;;;;;;;1999.90;999.90;;;;;;;28.23;27.24;101472.63;5051682;28;20055;-63
2023/06/13 03:37:05;;;;;;;1999.90;999.90;;;;;;;28.73;27.45;101472.47;5051179;28;20646;-63
2023/06/13 03:39:30;;;;;;;1999.90;999.90;;;;;;;28.90;27.17;101474.69;5051911;28;20016;-63
2023/06/13 03:41:56;;;;;;;1999.90;999.90;;;;;;;28.65;27.38;101472.22;5051349;28;20430;-63
2023/06/13 03:44:21;;;;;;;1999.90;999.90;;;;;;;28.41;26.84;101471.25;5051189;28;20555;-63
2023/06/13 03:46:47;;;;;;;1999.90;999.90;;;;;;;28.10;27.42;101476.22;5069048;28;20032;-63
2023/06/13 03:49:12;;;;;;;1999.90;999.90;;;;;;;28.40;26.93;101482.13;5051766;28;20408;-64
2023/06/13 03:51:37;;;;;;;1999.90;999.90;;;;;;;27.90;27.49;101475.00;5050424;28;20023;-63
2023/06/13 03:54:03;;;;;;;1999.90;999.90;;;;;;;27.92;27.10;101478.41;5051723;28;20020;-63
2023/06/13 03:56:28;;;;;;;1999.90;999.90;;;;;;;27.90;27.13;101475.00;5051452;28;20056;-63
2023/06/13 03:58:53;;;;;;;1999.90;999.90;;;;;;;27.84;26.67;101471.91;5050422;28;20388;-63
2023/06/13 04:01:19;;;;;;;1999.90;999.90;;;;;;;27.97;26.80;101471.84;5051607;28;20178;-63
2023/06/13 04:03:45;;;;;;;1999.90;999.90;;;;;;;27.98;26.91;101473.56;5050424;28;20029;-63
2023/06/13 04:06:11;;;;;;;1999.90;999.90;;;;;;;27.46;27.44;101471.00;5068679;28;20024;-63
2023/06/13 04:08:36;;;;;;;1999.90;999.90;;;;;;;27.41;27.28;101478.56;5050899;28;20019;-65
2023/06/13 04:11:02;;;;;;;1999.90;999.90;;;;;;;27.89;26.77;101478.66;5050740;28;20013;-63
2023/06/13 04:13:27;;;;;;;1999.90;999.90;;;;;;;28.25;27.08;101484.97;5051505;28;20070;-63
2023/06/13 04:15:53;;;;;;;1999.90;999.90;;;;;;;27.49;27.56;101483.34;5050823;28;20016;-63
2023/06/13 04:18:18;;;;;;;1999.90;999.90;;;;;;;27.75;27.68;101487.72;5050579;28;20113;-63
2023/06/13 04:20:44;;;;;;;1999.90;999.90;;;;;;;27.58;27.52;101486.25;5050939;28;20370;-63
2023/06/13 04:23:10;;;;;;;1999.90;999.90;;;;;;;27.63;27.05;101479.69;5050916;28;20017;-64
2023/06/13 04:25:35;;;;;;;1999.90;999.90;;;;;;;27.50;27.39;101482.41;5068236;28;20032;-65
2023/06/13 04:28:02;;;;;;;1999.90;999.90;;;;;;;27.13;27.98;101479.59;5051054;28;20032;-63
2023/06/13 04:30:28;;;;;;;1999.90;999.90;;;;;;;27.31;27.60;101482.81;5069310;28;20029;-63
2023/06/13 04:32:57;;;;;;;1999.90;999.90;;;;;;;27.79;27.12;101477.59;5049750;28;20170;-63
2023/06/13 04:35:26;;;;;;;1999.90;999.90;;;;;;;27.37;27.10;101485.13;5069257;28;20036;-63
2023/06/13 04:37:52;;;;;;;1999.90;999.90;;;;;;;27.75;27.51;101481.47;5068650;28;20028;-63
2023/06/13 04:40:18;;;;;;;1999.90;999.90;;;;;;;27.40;27.18;101483.06;5068228;28;20032;-64
2023/06/13 04:42:51;;;;;;;1999.90;999.90;;;;;;;27.86;27.30;101473.50;5050674;28;20350;-63
2023/06/13 04:45:20;;;;;;;1999.90;999.90;;;;;;;28.63;26.00;101482.19;5051319;28;20165;-63
2023/06/13 04:47:47;;;;;;;1999.90;999.90;;;;;;;28.79;26.19;101492.66;5067943;28;20056;-63
2023/06/13 04:50:12;;;;;;;1999.90;999.90;;;;;;;28.48;25.97;101485.09;5051166;28;20016;-63
2023/06/13 04:52:40;;;;;;;1999.90;999.90;;;;;;;29.65;24.68;101482.34;5050440;28;20392;-63
2023/06/13 04:55:06;;;;;;;1999.90;999.90;;;;;;;29.67;24.02;101488.47;5068202;28;20052;-64
2023/06/13 04:57:32;;;;;;;1999.90;999.90;;;;;;;31.29;23.03;101485.72;5051180;28;20028;-63
2023/06/13 05:00:01;;;;;;;1999.90;999.90;;;;;;;31.23;22.58;101492.50;5068630;28;20119;-63
2023/06/13 05:02:27;;;;;;;1999.90;999.90;;;;;;;32.25;21.84;101493.41;5068849;28;20101;-63
2023/06/13 05:04:52;;;;;;;1999.90;999.90;;;;;;;32.33;21.27;101508.88;5050417;28;20503;-63
2023/06/13 05:07:19;;;;;;;1999.90;999.90;;;;;;;32.75;21.08;101501.34;5050205;28;20025;-64
2023/06/13 05:09:44;;;;;;;1999.90;999.90;;;;;;;31.71;22.14;101506.34;5050183;28;20036;-63
2023/06/13 05:12:11;;;;;;;1999.90;999.90;;;;;;;31.35;22.63;101514.00;5051166;28;20020;-63
2023/06/13 05:14:39;;;;;;;1999.90;999.90;;;;;;;31.85;22.64;101511.38;5067508;28;20407;-63
2023/06/13 05:17:05;;;;;;;1999.90;999.90;;;;;;;31.52;22.54;101505.28;5050763;28;20017;-63
2023/06/13 05:19:34;;;;;;;1999.90;999.90;;;;;;;32.53;21.82;101507.88;5054201;28;20020;-63
2023/06/13 05:22:07;;;;;;;1999.90;999.90;;;;;;;31.71;22.88;101514.44;5053526;28;20170;-63
2023/06/13 05:24:33;;;;;;;1999.90;999.90;;;;;;;31.56;22.74;101511.25;5072256;28;20031;-63
2023/06/13 05:26:59;;;;;;;1999.90;999.90;;;;;;;30.97;24.03;101519.03;5054118;28;20384;-63
2023/06/13 05:29:26;;;;;;;1999.90;999.90;;;;;;;30.68;24.92;101516.13;5053615;28;20028;-63
2023/06/13 05:31:52;;;;;;;1999.90;999.90;;;;;;;30.40;24.57;101518.44;5072017;28;20016;-63
2023/06/13 05:34:17;;;;;;;1999.90;999.90;;;;;;;30.08;25.21;101521.97;5054290;28;20026;-63
2023/06/13 05:36:42;;;;;;;1999.90;999.90;;;;;;;31.10;24.10;101516.16;5071096;28;20029;-63
2023/06/13 05:39:08;;;;;;;1999.90;999.90;;;;;;;30.63;24.75;101520.06;5054131;28;20032;-63
2023/06/13 05:41:37;;;;;;;1999.90;999.90;;;;;;;29.70;25.76;101525.91;5054235;28;20085;-63
2023/06/13 05:44:02;;;;;;;1999.90;999.90;;;;;;;29.59;25.59;101524.09;5053307;28;20472;-63
2023/06/13 05:46:28;;;;;;;1999.90;999.90;;;;;;;29.47;25.89;101525.94;5054013;28;20039;-63
2023/06/13 05:48:53;;;;;;;1999.90;999.90;;;;;;;29.39;26.55;101536.47;5071645;28;20071;-63
2023/06/13 05:51:18;;;;;;;1999.90;999.90;;;;;;;29.65;26.13;101528.13;5053262;28;20032;-63
2023/06/13 05:53:44;;;;;;;1999.90;999.90;;;;;;;29.68;26.20;101525.19;5053740;28;20387;-63
2023/06/13 05:56:09;;;;;;;1999.90;999.90;;;;;;;29.30;26.78;101538.03;5053657;28;20066;-63
2023/06/13 05:58:38;;;;;;;1999.90;999.90;;;;;;;29.26;26.51;101537.44;5070814;28;20032;-63
2023/06/13 06:01:03;;;;;;;1999.90;999.90;;;;;;;29.89;26.71;101525.31;5053819;28;20035;-63
2023/06/13 06:03:30;;;;;;;1999.90;999.90;;;;;;;30.74;24.60;101532.66;5070955;28;20021;-63
2023/06/13 06:05:55;;;;;;;1999.90;999.90;;;;;;;30.07;25.44;101529.19;5053137;28;20036;-63
2023/06/13 06:08:21;;;;;;;1999.90;999.90;;;;;;;30.59;25.51;101534.81;5053685;28;20052;-63
2023/06/13 06:10:46;;;;;;;1999.90;999.90;;;;;;;30.76;25.45;101535.22;5052576;28;20499;-63
2023/06/13 06:13:12;;;;;;;1999.90;999.90;;;;;;;31.67;23.60;101545.44;5071668;28;20099;-63
2023/06/13 06:15:37;;;;;;;1999.90;999.90;;;;;;;32.26;22.88;101531.09;5070933;28;20054;-63
2023/06/13 06:18:02;;;;;;;1999.90;999.90;;;;;;;33.59;21.28;101545.75;5070895;28;20064;-63
2023/06/13 06:20:28;;;;;;;1999.90;999.90;;;;;;;35.33;19.93;101534.72;5053274;28;20020;-63
2023/06/13 06:22:53;;;;;;;1999.90;999.90;;;;;;;36.42;18.89;101541.19;5070918;28;20540;-63
2023/06/13 06:25:21;;;;;;;1999.90;999.90;;;;;;;36.38;18.25;101534.38;5070857;28;20448;-63
2023/06/13 06:27:47;;;;;;;1999.90;999.90;;;;;;;36.31;17.97;101542.41;5052947;28;20028;-63
2023/06/13 06:30:13;;;;;;;1999.90;999.90;;;;;;;37.54;17.06;101543.28;5052237;28;20024;-63
2023/06/13 06:32:39;;;;;;;1999.90;999.90;;;;;;;37.33;17.35;101550.16;5070257;28;20039;-63
2023/06/13 06:35:05;;;;;;;1999.90;999.90;;;;;;;38.33;16.42;101543.22;5053531;28;20101;-63
2023/06/13 06:37:30;;;;;;;1999.90;999.90;;;;;;;37.90;16.68;101550.97;5071176;28;20024;-63
2023/06/13 06:39:56;;;;;;;1999.90;999.90;;;;;;;38.26;16.28;101553.16;5051874;28;20407;-63
2023/06/13 06:42:22;;;;;;;1999.90;999.90;;;;;;;38.80;15.90;101554.09;5052808;28;20033;-65
2023/06/13 06:44:48;;;;;;;1999.90;999.90;;;;;;;38.91;16.01;101553.69;5071112;28;20395;-63
2023/06/13 06:47:14;;;;;;;1999.90;999.90;;;;;;;38.09;16.17;101548.81;5052550;28;20468;-64
2023/06/13 06:49:41;;;;;;;1999.90;999.90;;;;;;;38.81;15.78;101545.72;5052519;28;20066;-63
2023/06/13 06:52:06;;;;;;;1999.90;999.90;;;;;;;40.06;14.97;101548.72;5052952;28;20495;-63
2023/06/13 06:54:32;;;;;;;1999.90;999.90;;;;;;;40.80;14.58;101542.06;5069905;28;20092;-63
2023/06/13 06:56:57;;;;;;;1999.90;999.90;;;;;;;40.76;14.83;101545.41;5070333;28;20032;-64
2023/06/13 06:59:22;;;;;;;1999.90;999.90;;;;;;;40.77;14.59;101555.31;5052605;28;20028;-64
2023/06/13 07:01:48;;;;;;;1999.90;999.90;;;;;;;40.94;14.41;101548.50;5051453;28;20025;-64
2023/06/13 07:04:14;;;;;;;1999.90;999.90;;;;;;;40.90;14.54;101547.19;5070649;28;20033;-64
2023/06/13 07:06:39;;;;;;;1999.90;999.90;;;;;;;41.89;13.97;101550.69;5051434;28;20033;-63
2023/06/13 07:09:05;;;;;;;1999.90;999.90;;;;;;;41.22;13.81;101550.38;5052591;28;20050;-63
2023/06/13 07:11:30;;;;;;;1999.90;999.90;;;;;;;40.11;14.91;101550.91;5052670;28;20024;-65
2023/06/13 07:13:56;;;;;;;1999.90;999.90;;;;;;;39.34;15.31;101548.44;5069187;28;20543;-63
2023/06/13 07:16:21;;;;;;;1999.90;999.90;;;;;;;39.96;14.67;101551.75;5052563;28;20024;-63
2023/06/13 07:18:47;;;;;;;1999.90;999.90;;;;;;;40.85;14.56;101550.53;5051754;28;20458;-65
2023/06/13 07:21:12;;;;;;;1999.90;999.90;;;;;;;40.54;14.67;101548.16;5051332;28;20031;-64
2023/06/13 07:23:38;;;;;;;1999.90;999.90;;;;;;;39.99;15.19;101562.31;5051723;28;20537;-64
2023/06/13 07:26:03;;;;;;;1999.90;999.90;;;;;;;41.19;14.12;101556.25;5070266;28;20099;-64
2023/06/13 07:28:28;;;;;;;1999.90;999.90;;;;;;;39.79;14.93;101562.09;5051536;28;20037;-64
2023/06/13 07:30:55;;;;;;;1999.90;999.90;;;;;;;40.53;14.37;101555.56;5069629;28;20062;-64
2023/06/13 07:33:20;;;;;;;1999.90;999.90;;;;;;;40.70;14.59;101553.38;5070170;28;20021;-63
2023/06/13 07:35:47;;;;;;;1999.90;999.90;;;;;;;41.93;13.47;101562.97;5068624;28;20074;-64
2023/06/13 07:38:12;;;;;;;1999.90;999.90;;;;;;;42.12;13.51;101555.00;5052269;28;20484;-64
2023/06/13 07:40:37;;;;;;;1999.90;999.90;;;;;;;41.72;13.68;101562.00;5051428;28;20032;-64
2023/06/13 07:43:03;;;;;;;1999.90;999.90;;;;;;;42.30;13.49;101558.00;5051222;28;20393;-64
2023/06/13 07:45:28;;;;;;;1999.90;999.90;;;;;;;41.07;13.90;101564.22;5052156;28;20066;-65
2023/06/13 07:47:54;;;;;;;1999.90;999.90;;;;;;;43.75;12.66;101561.81;5051194;28;20098;-64
2023/06/13 07:50:20;;;;;;;1999.90;999.90;;;;;;;42.94;13.03;101552.94;5051073;28;20064;-64
2023/06/13 07:52:45;;;;;;;1999.90;999.90;;;;;;;42.76;12.57;101553.59;5051185;28;20020;-64
2023/06/13 07:55:11;;;;;;;1999.90;999.90;;;;;;;43.71;12.82;101557.81;5051866;28;20049;-64
2023/06/13 07:57:36;;;;;;;1999.90;999.90;;;;;;;42.72;12.75;101553.19;5050405;28;20085;-64
2023/06/13 08:00:06;;;;;;;1999.90;999.90;;;;;;;41.87;13.30;101555.56;5051622;28;20468;-64
2023/06/13 08:02:34;;;;;;;1999.90;999.90;;;;;;;41.30;13.29;101552.09;5051418;28;20021;-64
2023/06/13 08:04:59;;;;;;;1999.90;999.90;;;;;;;41.67;12.92;101548.09;5050556;28;20089;-64
2023/06/13 08:07:25;;;;;;;1999.90;999.90;;;;;;;39.92;14.30;101547.72;5069832;28;20021;-64
2023/06/13 08:09:50;;;;;;;1999.90;999.90;;;;;;;41.39;12.71;101547.34;5069037;28;20016;-64
2023/06/13 08:12:16;;;;;;;1999.90;999.90;;;;;;;41.07;13.25;101546.91;5050843;28;20488;-64
2023/06/13 08:14:41;;;;;;;1999.90;999.90;;;;;;;43.05;13.00;101546.81;5069120;28;20024;-65
2023/06/13 08:17:06;;;;;;;1999.90;999.90;;;;;;;42.67;12.27;101544.72;5050732;28;20028;-64
2023/06/13 08:19:32;;;;;;;1999.90;999.90;;;;;;;41.65;12.28;101547.44;5069587;28;20047;-65
2023/06/13 08:21:57;;;;;;;1999.90;999.90;;;;;;;42.57;12.19;101541.53;5050849;28;20053;-64
2023/06/13 08:24:22;;;;;;;1999.90;999.90;;;;;;;41.60;12.71;101543.63;5050654;28;20461;-64
2023/06/13 08:26:49;;;;;;;1999.90;999.90;;;;;;;41.85;12.92;101552.16;5068730;28;20154;-64
2023/06/13 08:29:15;;;;;;;1999.90;999.90;;;;;;;42.44;12.27;101539.63;5051330;28;20039;-64
2023/06/13 08:31:40;;;;;;;1999.90;999.90;;;;;;;44.08;11.37;101540.69;5049983;28;20024;-64
2023/06/13 08:34:06;;;;;;;1999.90;999.90;;;;;;;42.79;11.82;101539.44;5051381;28;20028;-64
2023/06/13 08:36:35;;;;;;;1999.90;999.90;;;;;;;44.24;11.40;101542.88;5069379;28;20051;-65
2023/06/13 08:39:01;;;;;;;1999.90;999.90;;;;;;;45.04;11.07;101539.47;5068526;28;20071;-64
2023/06/13 08:41:28;;;;;;;1999.90;999.90;;;;;;;43.51;10.88;101546.91;5051088;28;20024;-64
2023/06/13 08:43:53;;;;;;;1999.90;999.90;;;;;;;43.29;11.33;101538.91;5050622;28;20350;-64
2023/06/13 08:46:19;;;;;;;1999.90;999.90;;;;;;;42.88;11.31;101540.91;5068661;28;20037;-64
2023/06/13 08:48:45;;;;;;;1999.90;999.90;;;;;;;42.25;11.54;101538.56;5050697;28;20047;-64
2023/06/13 08:51:16;;;;;;;1999.90;999.90;;;;;;;41.26;12.25;101540.72;5069354;28;20529;-64
2023/06/13 08:53:51;;;;;;;1999.90;999.90;;;;;;;43.00;10.59;101530.06;5052141;28;20078;-65
2023/06/13 08:56:21;;;;;;;1999.90;999.90;;;;;;;41.06;11.74;101531.53;5054926;28;20633;-63
2023/06/13 08:58:55;;;;;;;1999.90;999.90;;;;;;;39.67;12.68;101526.19;5054439;28;20507;-64
2023/06/13 09:01:22;;;;;;;1999.90;999.90;;;;;;;41.90;11.86;101530.44;5054129;28;20028;-64
2023/06/13 09:03:48;;;;;;;1999.90;999.90;;;;;;;42.89;11.00;101517.00;5072474;28;20031;-64
2023/06/13 09:06:14;;;;;;;1999.90;999.90;;;;;;;45.02;10.04;101522.28;5072300;28;20081;-64
2023/06/13 09:08:41;;;;;;;1999.90;999.90;;;;;;;44.58;10.11;101524.22;5054351;28;20024;-64
2023/06/13 09:11:07;;;;;;;1999.90;999.90;;;;;;;43.53;10.41;101517.28;5054733;28;20024;-64
2023/06/13 09:13:35;;;;;;;1999.90;999.90;;;;;;;44.20;9.75;101508.59;5071905;28;20471;-65
2023/06/13 09:16:01;;;;;;;1999.90;999.90;;;;;;;43.46;10.77;101505.41;5054661;28;20028;-64
2023/06/13 09:18:27;;;;;;;1999.90;999.90;;;;;;;43.10;11.29;101517.81;5054996;28;20103;-64
2023/06/13 09:20:52;;;;;;;1999.90;999.90;;;;;;;44.01;10.23;101515.94;5071190;28;20024;-64
2023/06/13 09:23:19;;;;;;;1999.90;999.90;;;;;;;42.54;10.75;101509.00;5054518;28;20027;-64
2023/06/13 09:25:46;;;;;;;1999.90;999.90;;;;;;;43.21;10.73;101515.25;5053996;28;20034;-64
2023/06/13 09:28:31;;;;;;;1999.90;999.90;;;;;;;44.56;9.84;101515.34;5053650;28;20020;-65
2023/06/13 09:30:57;;;;;;;1015.15;924.92;;;;;;;40.97;11.79;101515.25;5071955;28;20051;-64
2023/06/13 09:33:23;;;;;;;1999.90;999.90;;;;;;;40.93;11.38;101513.94;5054448;28;20469;-65
2023/06/13 09:35:50;;;;;;;1999.90;999.90;;;;;;;40.68;11.95;101500.69;5052867;28;20365;-64
2023/06/13 09:38:21;;;;;;;1999.90;999.90;;;;;;;40.41;12.29;101498.72;5054407;28;20032;-65
2023/06/13 09:40:47;;;;;;;1999.90;999.90;;;;;;;40.58;12.39;101502.06;5053845;28;20037;-64
2023/06/13 09:43:15;;;;;;;1999.90;999.90;;;;;;;42.78;10.99;101509.44;5071546;28;20024;-65
2023/06/13 09:45:43;;;;;;;1999.90;999.90;;;;;;;44.05;10.28;101509.78;5071773;28;20025;-64
2023/06/13 09:48:08;;;;;;;1999.90;999.90;;;;;;;41.74;10.89;101509.69;5071920;28;20024;-65
2023/06/13 09:50:37;;;;;;;1999.90;999.90;;;;;;;40.74;11.93;101503.66;5053424;28;20361;-65
2023/06/13 09:53:04;;;;;;;1999.90;999.90;;;;;;;43.56;10.22;101494.81;5053990;28;20094;-64
2023/06/13 09:55:30;;;;;;;1999.90;999.90;;;;;;;42.48;10.90;101476.88;5053217;28;20044;-64
2023/06/13 09:57:55;;;;;;;1518.35;970.33;;;;;;;42.28;10.66;101482.38;5053220;28;20035;-64
2023/06/13 10:00:22;;;;;;;1999.90;999.90;;;;;;;43.26;10.44;101484.34;5053965;28;20111;-64
2023/06/13 10:02:47;;;;;;;1999.90;999.90;;;;;;;41.06;11.45;101490.41;5052517;28;20032;-65
2023/06/13 10:05:13;;;;;;;1999.90;999.90;;;;;;;41.91;10.65;101477.25;5052610;28;20032;-65
2023/06/13 10:07:39;;;;;;;1999.90;999.90;;;;;;;41.26;10.72;101495.97;5071452;28;20033;-64
2023/06/13 10:10:05;;;;;;;1999.90;999.90;;;;;;;42.43;10.76;101473.91;5053014;28;20086;-64
2023/06/13 10:12:32;;;;;;;1065.68;966.65;;;;;;;40.01;11.88;101491.84;5053672;28;20513;-65
2023/06/13 10:15:01;;;;;;;1999.90;999.90;;;;;;;41.04;11.78;101494.19;5053363;28;20058;-64
2023/06/13 10:17:32;;;;;;;1275.95;955.72;;;;;;;40.72;11.46;101483.84;5070726;28;20120;-64
2023/06/13 10:20:01;;;;;;;1038.63;943.53;;;;;;;39.95;11.68;101489.84;5053007;28;20400;-64
2023/06/13 10:22:27;;;;;;;1999.90;999.90;;;;;;;40.54;11.67;101483.28;5053530;28;20107;-64
2023/06/13 10:24:55;;;;;;;1999.90;999.90;;;;;;;41.54;12.37;101479.47;5052413;28;20436;-64
2023/06/13 10:27:22;;;;;;;1999.90;999.90;;;;;;;42.56;11.30;101482.16;5053599;28;20048;-64
2023/06/13 10:29:57;;;;;;;1999.90;999.90;;;;;;;43.68;10.01;101487.56;5053113;28;20035;-64
2023/06/13 10:32:46;;;;;;;1999.90;999.90;;;;;;;44.61;9.52;101478.81;5052507;28;20097;-64
2023/06/13 10:35:31;;;;;;;1033.20;939.70;;;;;;;44.46;9.80;101482.78;5053452;28;20110;-64
2023/06/13 10:38:21;;;;;;;1043.88;950.72;;;;;;;43.12;10.36;101477.25;5052097;28;20024;-64
2023/06/13 10:41:12;;;;;;;1999.90;999.90;;;;;;;43.93;10.25;101467.53;5052615;28;20082;-64
2023/06/13 10:44:01;;;;;;;1028.28;937.00;;;;;;;40.60;11.73;101475.31;5052454;28;20472;-64
2023/06/13 10:46:27;;;;;;;1999.90;999.90;;;;;;;41.74;10.79;101464.94;5052317;28;20396;-64
2023/06/13 10:48:53;;;;;;;1050.25;954.42;;;;;;;41.40;10.86;101466.75;5052626;28;20352;-64